METAR AND TAF INFORMATION
METAR FOR ENDU
ADDS - METARS form results

(0637 UTC 08 December 2022)
Data provider http://aviationweather.gov/metar/data/
 
METAR text: ENDU 080620Z 00000KT 9999 SCT050 M09/M10 Q1013 NOSIG RMK WIND 1100FT 08010KT WIND 2200FT 12017KT
Conditions at: ENDU (BARDUFOSS (CIV/M, NO) observed 0620 UTC 08 December 2022
Temperature: -9.0°C (16°F)
Dewpoint: -10.0°C (14°F) [RH = 92%]
Pressure (altimeter): 29.91 inches Hg (1013.0 mb)
Winds: calm
Visibility: 6 or more miles (10+ km)
Ceiling: at least 12,000 feet AGL
Clouds: scattered clouds at 5000 feet AGL
Weather: no significant weather observed at this time

METAR text: ENDU 080550Z 10004KT 070V130 9999 SCT050 M06/M10 Q1013 NOSIG RMK WIND 1100FT 11010KT WIND 2200FT 12016KT
Conditions at: ENDU (BARDUFOSS (CIV/M, NO) observed 0550 UTC 08 December 2022
Temperature: -6.0°C (21°F)
Dewpoint: -10.0°C (14°F) [RH = 73%]
Pressure (altimeter): 29.91 inches Hg (1013.0 mb)
Winds: from the E (100 degrees) at 5 MPH (4 knots; 2.1 m/s)
Visibility: 6 or more miles (10+ km)
Ceiling: at least 12,000 feet AGL
Clouds: scattered clouds at 5000 feet AGL
Weather: no significant weather observed at this time

Forecast for: ENDU (BARDUFOSS (CIV/M, NO)
Text: TAF ENDU 0806/0906 11006KT 9999 FEW030 SCT050
Forecast period: 0600 UTC 08 December 2022 to 0600 UTC 09 December 2022
Forecast type: FROM: standard forecast or significant change
Winds: from the ESE (110 degrees) at 7 MPH (6 knots; 3.1 m/s)
Visibility: 6 or more miles (10+ km)
Ceiling: at least 12,000 feet AGL
Clouds: few clouds at 3000 feet AGL
scattered clouds at 5000 feet AGL
Weather: no significant weather forecast for this period

 AIRPORT MAP

 RUNWAY INFORMATION
Runway 10 Runway length 8015 ft Runway width 148 ft
Runway elevation 252 ft Runway displaced threshold 1880 ft Runway heading 109
Runway 28 Runway length 8015 ft Runway width 148 ft
Runway elevation 219 ft Runway displaced threshold 0 ft Runway heading 289

 AIRPORT FREQUENCIES
Type APP Name APP Frequency 118.8 MHZ
Type ATIS Name ATIS Frequency 129.725 MHZ
Type TWR Name TWR Frequency 118.1 MHZ

 AIRPORT NEAR NAVIGATION AIDS
Type TACAN Name Bardufoss Frequency 113400 KHZ
Type VOR-DME Name Bardufoss Frequency 114200 KHZ
Type NDB Name Sorreisa Frequency 338 KHZ
Type NDB Name Senja Frequency 414 KHZ
Type NDB Name Fossmo Frequency 371 KHZ
Type NDB Name Tiller Frequency 350 KHZ